Airport ICAO


10:07 UTC

9°C

Few clouds


An affordable passengers' Moving Map for your aircraft. Made for the iPad and the iPhone
More information here

LFMN Cote D'Azur


Nice FRANCE   VFR


METAR LFMN 180930Z 34007KT 9999 FEW036 09/M04 Q1011 NOSIG 0h37min

TAF LFMN 180800Z 1809/1915 34010KT 9999 FEW020 BECMG 1811/1813 24010KT BECMG 1817/1819 33010KT BECMG 1911/1913 24010KT 2h07min





NOTAMS

OPEN